Time;durP1;ratioP1;P1;durP2;ratioP2;P2;SDS_P1;SDS_P2;PMS_P1;PMS_P2;Temp;Humidity;BMP_temperature;BMP_pressure;BME280_temperature;BME280_humidity;BME280_pressure;Samples;Min_cycle;Max_cycle;Signal;HPM_P1;HPM_P2
2023/06/30 00:00:01;;;;;;;7.13;5.60;;;;;;;;;;5120782;28;20495;-56
2023/06/30 00:02:28;;;;;;;8.13;5.13;;;;;;;;;;5123841;28;20983;-53
2023/06/30 00:04:57;;;;;;;6.60;6.00;;;;;;;;;;5115449;28;20484;-57
2023/06/30 00:07:24;;;;;;;7.70;6.60;;;22.90;99.90;;;;;;5119042;28;20468;-55
2023/06/30 00:09:53;;;;;;;6.17;5.47;;;22.60;99.90;;;;;;5121724;28;20452;-58
2023/06/30 00:12:19;;;;;;;6.40;5.20;;;22.60;99.90;;;;;;5126893;28;20479;-56
2023/06/30 00:14:47;;;;;;;6.50;5.90;;;;;;;;;;5121056;28;20519;-57
2023/06/30 00:17:13;;;;;;;7.60;6.23;;;22.60;99.90;;;;;;5126176;28;20464;-55
2023/06/30 00:19:40;;;;;;;7.17;6.47;;;22.50;99.90;;;;;;5120598;28;20468;-56
2023/06/30 00:22:07;;;;;;;7.53;6.83;;;22.40;99.90;;;;;;5118507;28;20494;-54
2023/06/30 00:24:34;;;;;;;9.73;5.50;;;;;;;;;;5122906;28;20504;-56
2023/06/30 00:27:03;;;;;;;8.30;7.10;;;22.60;99.90;;;;;;5122760;28;20488;-56
2023/06/30 00:29:30;;;;;;;9.40;6.87;;;22.50;99.90;;;;;;5122032;28;20440;-57
2023/06/30 00:31:57;;;;;;;10.27;7.33;;;22.00;99.90;;;;;;5115341;28;20457;-57
2023/06/30 00:34:23;;;;;;;9.87;7.60;;;22.50;99.90;;;;;;5119211;28;20472;-57
2023/06/30 00:36:50;;;;;;;10.70;7.53;;;22.20;99.90;;;;;;5118494;28;20476;-57
2023/06/30 00:39:17;;;;;;;26.00;8.93;;;;;;;;;;5117603;28;20500;-56
2023/06/30 00:41:45;;;;;;;13.17;8.73;;;;;;;;;;5121318;28;20451;-57
2023/06/30 00:44:13;;;;;;;16.03;9.30;;;22.50;99.90;;;;;;5119216;28;20494;-53
2023/06/30 00:46:40;;;;;;;12.10;9.47;;;;;;;;;;5124447;28;20428;-57
2023/06/30 00:49:07;;;;;;;11.20;8.30;;;22.20;99.90;;;;;;5132916;28;20507;-55
2023/06/30 00:51:34;;;;;;;20.10;9.90;;;22.00;99.90;;;;;;5122236;28;20463;-54
2023/06/30 00:54:01;;;;;;;11.90;9.10;;;21.90;99.90;;;;;;5121488;28;20912;-55
2023/06/30 00:56:28;;;;;;;13.40;9.13;;;;;;;;;;5121094;28;20756;-56
2023/06/30 00:58:57;;;;;;;13.40;9.33;;;22.10;99.90;;;;;;5123387;28;20424;-56
2023/06/30 01:01:34;;;;;;;13.47;8.70;;;21.80;99.90;;;;;;5119248;28;20900;-54
2023/06/30 01:04:10;;;;;;;14.17;9.40;;;22.00;99.90;;;;;;5118666;28;20559;-54
2023/06/30 01:06:44;;;;;;;12.37;9.00;;;21.90;99.90;;;;;;5128993;28;20416;-57
2023/06/30 01:09:16;;;;;;;17.33;9.50;;;21.60;99.90;;;;;;5127130;28;20507;-53
2023/06/30 01:11:44;;;;;;;13.67;9.20;;;21.60;99.90;;;;;;5134663;28;20421;-54
2023/06/30 01:14:12;;;;;;;14.10;9.83;;;21.80;99.90;;;;;;5118551;28;20440;-56
2023/06/30 01:16:42;;;;;;;14.00;8.63;;;21.50;99.90;;;;;;5129602;28;20474;-57
2023/06/30 01:19:19;;;;;;;15.37;10.93;;;21.30;99.90;;;;;;5125697;28;20828;-56
2023/06/30 01:21:47;;;;;;;15.83;9.83;;;21.20;99.90;;;;;;5118753;28;20463;-55
2023/06/30 01:24:17;;;;;;;14.27;10.03;;;20.80;99.90;;;;;;5125536;28;20497;-57
2023/06/30 01:26:44;;;;;;;13.60;8.90;;;21.00;99.90;;;;;;5120301;28;20757;-54
2023/06/30 01:29:11;;;;;;;14.77;9.70;;;20.80;99.90;;;;;;5120403;28;20500;-52
2023/06/30 01:31:38;;;;;;;20.40;9.70;;;;;;;;;;5118135;28;20448;-55
2023/06/30 01:34:07;;;;;;;14.53;8.97;;;;;;;;;;5118235;28;20479;-56
2023/06/30 01:36:35;;;;;;;18.17;10.57;;;;;;;;;;5122616;28;20935;-56
2023/06/30 01:39:02;;;;;;;24.20;11.70;;;20.60;99.90;;;;;;5122369;28;20421;-55
2023/06/30 01:41:29;;;;;;;15.73;10.17;;;20.70;99.90;;;;;;5127203;28;20476;-55
2023/06/30 01:43:56;;;;;;;17.73;10.37;;;20.50;99.90;;;;;;5134399;28;20508;-52
2023/06/30 01:46:23;;;;;;;15.87;9.50;;;20.50;99.90;;;;;;5138232;28;20440;-53
2023/06/30 01:48:51;;;;;;;13.67;10.90;;;;;;;;;;5138461;28;20444;-50
2023/06/30 01:51:19;;;;;;;15.37;10.33;;;20.30;99.90;;;;;;5136406;28;20464;-53
2023/06/30 01:53:49;;;;;;;19.17;9.57;;;;;;;;;;5133693;28;20477;-52
2023/06/30 01:56:16;;;;;;;14.00;9.83;;;20.40;99.90;;;;;;5135424;28;20455;-53
2023/06/30 01:58:45;;;;;;;19.70;10.97;;;20.40;99.90;;;;;;5127928;28;20941;-52
2023/06/30 02:01:12;;;;;;;16.13;10.33;;;20.30;99.90;;;;;;5129898;28;20444;-52
2023/06/30 02:03:39;;;;;;;16.23;10.07;;;20.50;99.90;;;;;;5125871;28;20508;-55
2023/06/30 02:06:08;;;;;;;14.60;8.77;;;20.30;99.90;;;;;;5125300;28;20471;-54
2023/06/30 02:08:36;;;;;;;16.53;10.57;;;20.00;99.90;;;;;;5125433;28;20476;-51
2023/06/30 02:11:03;;;;;;;12.87;9.73;;;20.40;99.90;;;;;;5125544;28;20496;-53
2023/06/30 02:13:30;;;;;;;17.43;10.90;;;20.70;99.90;;;;;;5125088;28;20447;-54
2023/06/30 02:15:57;;;;;;;15.57;10.20;;;20.50;99.90;;;;;;5118215;28;20497;-57
2023/06/30 02:18:24;;;;;;;21.03;12.07;;;;;;;;;;5127852;28;20541;-56
2023/06/30 02:20:54;;;;;;;18.50;10.00;;;20.30;99.90;;;;;;5130534;28;20449;-55
2023/06/30 02:23:21;;;;;;;16.37;10.13;;;20.40;99.90;;;;;;5125767;28;20522;-56
2023/06/30 02:25:50;;;;;;;16.07;10.37;;;20.60;99.90;;;;;;5129124;28;20451;-54
2023/06/30 02:28:17;;;;;;;16.23;9.93;;;;;;;;;;5116814;28;20463;-56
2023/06/30 02:30:44;;;;;;;19.17;11.80;;;;;;;;;;5117356;28;20507;-56
2023/06/30 02:33:11;;;;;;;19.17;11.10;;;;;;;;;;5133758;28;20444;-57
2023/06/30 02:35:40;;;;;;;19.63;12.23;;;20.30;99.90;;;;;;5118043;28;20786;-56
2023/06/30 02:38:07;;;;;;;16.73;11.33;;;20.20;99.90;;;;;;5122168;28;20490;-53
2023/06/30 02:40:36;;;;;;;16.03;10.07;;;;;;;;;;5129097;28;20489;-58
2023/06/30 02:43:07;;;;;;;17.53;11.30;;;;;;;;;;5127874;28;20484;-52
2023/06/30 02:45:35;;;;;;;14.57;10.57;;;;;;;;;;5136059;28;20425;-50
2023/06/30 02:48:04;;;;;;;14.63;10.53;;;20.20;99.90;;;;;;5137349;28;20441;-54
2023/06/30 02:50:32;;;;;;;15.97;11.67;;;;;;;;;;5129197;28;20813;-54
2023/06/30 02:52:59;;;;;;;23.13;13.60;;;20.00;99.90;;;;;;5128391;28;20460;-55
2023/06/30 02:55:27;;;;;;;18.90;12.37;;;;;;;;;;5125375;28;20531;-55
2023/06/30 02:57:54;;;;;;;18.57;10.90;;;;;;;;;;5135148;28;20429;-53
2023/06/30 03:00:22;;;;;;;17.03;10.80;;;;;;;;;;5130582;28;20483;-55
2023/06/30 03:02:50;;;;;;;15.93;11.07;;;;;;;;;;5129022;28;20610;-57
2023/06/30 03:05:17;;;;;;;20.20;11.83;;;19.90;99.90;;;;;;5126504;28;20448;-52
2023/06/30 03:07:43;;;;;;;18.00;11.80;;;20.40;99.90;;;;;;5116814;28;20436;-56
2023/06/30 03:10:10;;;;;;;17.47;12.07;;;20.00;99.90;;;;;;5117862;28;20977;-57
2023/06/30 03:12:37;;;;;;;25.83;14.60;;;20.00;99.90;;;;;;5122932;28;20869;-56
2023/06/30 03:15:05;;;;;;;22.47;12.53;;;20.30;99.90;;;;;;5119709;28;20468;-56
2023/06/30 03:17:33;;;;;;;17.57;11.23;;;19.80;99.90;;;;;;5115763;28;20908;-56
2023/06/30 03:20:10;;;;;;;24.50;13.20;;;20.10;99.90;;;;;;5116209;28;20475;-57
2023/06/30 03:22:37;;;;;;;22.10;11.63;;;;;;;;;;5122584;28;20515;-57
2023/06/30 03:25:07;;;;;;;21.17;12.77;;;20.10;99.90;;;;;;5129099;28;20491;-54
2023/06/30 03:27:34;;;;;;;16.20;11.47;;;20.10;99.90;;;;;;5133441;28;20492;-56
2023/06/30 03:30:02;;;;;;;23.30;13.70;;;;;;;;;;5120196;28;20455;-56
2023/06/30 03:32:29;;;;;;;25.10;13.83;;;20.70;99.90;;;;;;5123814;28;20441;-57
2023/06/30 03:34:57;;;;;;;18.53;11.90;;;20.30;99.90;;;;;;5123339;28;20508;-57
2023/06/30 03:37:24;;;;;;;16.93;11.73;;;20.10;99.90;;;;;;5123641;28;20470;-54
2023/06/30 03:39:51;;;;;;;17.87;12.63;;;20.00;99.90;;;;;;5117772;28;20499;-55
2023/06/30 03:42:18;;;;;;;16.93;11.40;;;20.10;99.90;;;;;;5115394;28;20451;-56
2023/06/30 03:44:45;;;;;;;27.97;12.80;;;20.10;99.90;;;;;;5115334;28;20516;-54
2023/06/30 03:47:12;;;;;;;17.60;11.77;;;;;;;;;;5118896;28;20505;-57
2023/06/30 03:49:39;;;;;;;19.83;12.23;;;20.10;99.90;;;;;;5115696;28;20444;-57
2023/06/30 03:52:08;;;;;;;16.57;10.97;;;19.90;99.90;;;;;;5115150;28;20995;-53
2023/06/30 03:54:34;;;;;;;18.73;9.83;;;20.10;99.90;;;;;;5119403;28;20464;-54
2023/06/30 03:57:01;;;;;;;21.03;12.17;;;20.20;99.90;;;;;;5119708;28;20448;-58
2023/06/30 03:59:28;;;;;;;21.17;13.07;;;20.00;99.90;;;;;;5119658;28;20451;-56
2023/06/30 04:01:57;;;;;;;24.33;13.63;;;20.30;99.90;;;;;;5119666;28;20487;-59
2023/06/30 04:04:25;;;;;;;12.67;10.50;;;;;;;;;;5134612;28;20487;-56
2023/06/30 04:06:52;;;;;;;27.23;13.10;;;;;;;;;;5129025;28;20916;-58
2023/06/30 04:09:20;;;;;;;21.70;12.50;;;20.30;99.90;;;;;;5128853;28;20448;-55
2023/06/30 04:11:48;;;;;;;20.03;13.83;;;20.00;99.90;;;;;;5129556;28;20460;-55
2023/06/30 04:14:15;;;;;;;22.43;13.17;;;20.20;99.90;;;;;;5115149;28;20433;-53
2023/06/30 04:16:42;;;;;;;23.50;11.87;;;20.20;99.90;;;;;;5116113;28;20501;-54
2023/06/30 04:19:08;;;;;;;23.97;12.93;;;20.10;99.90;;;;;;5129054;28;20417;-54
2023/06/30 04:21:38;;;;;;;22.10;13.97;;;;;;;;;;5123341;28;20464;-55
2023/06/30 04:24:05;;;;;;;21.43;12.87;;;;;;;;;;5121423;28;20484;-55
2023/06/30 04:26:41;;;;;;;21.23;13.93;;;20.30;99.90;;;;;;5124334;28;20436;-56
2023/06/30 04:29:08;;;;;;;17.60;11.73;;;;;;;;;;5115162;28;20424;-56
2023/06/30 04:31:35;;;;;;;17.60;11.07;;;;;;;;;;5119735;28;20435;-57
2023/06/30 04:34:02;;;;;;;23.63;13.23;;;20.30;99.90;;;;;;5115108;28;20437;-57
2023/06/30 04:36:29;;;;;;;20.40;11.93;;;20.20;99.90;;;;;;5116297;28;20536;-52
2023/06/30 04:38:57;;;;;;;20.23;13.03;;;;;;;;;;5115287;28;20441;-56
2023/06/30 04:41:25;;;;;;;20.27;12.60;;;;;;;;;;5117931;28;20448;-56
2023/06/30 04:43:54;;;;;;;19.47;11.80;;;;;;;;;;5124892;28;20460;-56
2023/06/30 04:46:21;;;;;;;16.33;11.67;;;;;;;;;;5123039;28;20440;-58
2023/06/30 04:48:48;;;;;;;18.60;12.50;;;;;;;;;;5124453;28;20495;-56
2023/06/30 04:51:19;;;;;;;18.70;12.63;;;20.30;99.90;;;;;;5127770;28;20842;-56
2023/06/30 04:53:46;;;;;;;18.83;12.87;;;;;;;;;;5122837;28;20447;-56
2023/06/30 04:56:13;;;;;;;22.50;12.27;;;20.40;99.90;;;;;;5118588;28;20441;-56
2023/06/30 04:58:39;;;;;;;19.40;13.87;;;20.80;99.90;;;;;;5114497;28;20804;-57
2023/06/30 05:01:08;;;;;;;24.20;12.97;;;21.10;99.90;;;;;;5115413;28;20810;-56
2023/06/30 05:03:36;;;;;;;17.97;11.53;;;;;;;;;;5114386;28;20518;-54
2023/06/30 05:06:03;;;;;;;20.97;11.97;;;;;;;;;;5117313;28;20527;-58
2023/06/30 05:08:31;;;;;;;21.30;12.17;;;;;;;;;;5122818;28;20487;-55
2023/06/30 05:10:58;;;;;;;21.87;12.77;;;;;;;;;;5117443;28;20427;-53
2023/06/30 05:13:26;;;;;;;18.60;11.27;;;21.20;99.90;;;;;;5130071;28;20481;-56
2023/06/30 05:15:53;;;;;;;18.70;11.40;;;21.10;99.90;;;;;;5119796;28;20496;-53
2023/06/30 05:18:22;;;;;;;20.47;12.10;;;;;;;;;;5128738;28;20447;-51
2023/06/30 05:20:49;;;;;;;18.70;12.90;;;;;;;;;;5119222;28;20444;-54
2023/06/30 05:23:16;;;;;;;27.33;14.00;;;;;;;;;;5119650;28;20480;-54
2023/06/30 05:25:43;;;;;;;18.93;11.63;;;21.40;99.90;;;;;;5118827;28;20543;-51
2023/06/30 05:28:11;;;;;;;19.00;13.10;;;;;;;;;;5117270;28;20444;-56
2023/06/30 05:30:40;;;;;;;19.90;12.40;;;21.50;99.90;;;;;;5120313;28;20472;-56
2023/06/30 05:33:07;;;;;;;21.07;12.00;;;;;;;;;;5123207;28;20448;-55
2023/06/30 05:35:35;;;;;;;16.50;10.67;;;21.10;99.90;;;;;;5126999;28;20448;-55
2023/06/30 05:38:02;;;;;;;21.80;11.80;;;;;;;;;;5121924;28;20464;-55
2023/06/30 05:40:30;;;;;;;22.67;12.63;;;;;;;;;;5121499;28;20446;-56
2023/06/30 05:42:57;;;;;;;23.07;12.90;;;21.90;99.90;;;;;;5121662;28;20480;-57
2023/06/30 05:45:26;;;;;;;16.40;8.70;;;21.50;99.90;;;;;;5121700;28;20906;-57
2023/06/30 05:47:53;;;;;;;15.70;9.70;;;;;;;;;;5127455;28;20447;-56
2023/06/30 05:50:27;;;;;;;21.53;10.17;;;22.10;99.90;;;;;;5125159;28;20963;-55
2023/06/30 05:52:55;;;;;;;17.70;10.83;;;22.30;99.90;;;;;;5125256;28;20775;-55
2023/06/30 05:55:22;;;;;;;17.17;10.20;;;;;;;;;;5125356;28;20461;-50
2023/06/30 05:57:49;;;;;;;15.47;10.27;;;22.90;99.90;;;;;;5119152;28;20485;-57
2023/06/30 06:00:17;;;;;;;18.57;10.13;;;;;;;;;;5117640;28;20527;-57
2023/06/30 06:02:44;;;;;;;14.40;9.53;;;;;;;;;;5118242;28;20562;-56
2023/06/30 06:05:11;;;;;;;14.67;8.90;;;22.90;99.90;;;;;;5118462;28;20868;-54
2023/06/30 06:07:40;;;;;;;20.50;10.60;;;;;;;;;;5120329;28;20524;-57
2023/06/30 06:10:09;;;;;;;16.87;9.70;;;23.00;99.90;;;;;;5120168;28;20459;-54
2023/06/30 06:12:36;;;;;;;13.87;10.27;;;;;;;;;;5118404;28;20510;-56
2023/06/30 06:15:04;;;;;;;13.60;9.23;;;;;;;;;;5117391;28;20523;-55
2023/06/30 06:17:30;;;;;;;12.83;8.83;;;23.20;99.90;;;;;;5119987;28;20436;-56
2023/06/30 06:19:58;;;;;;;19.10;9.23;;;22.80;99.90;;;;;;5120133;28;20468;-54
2023/06/30 06:22:25;;;;;;;18.93;10.57;;;;;;;;;;5120019;28;20909;-55
2023/06/30 06:24:57;;;;;;;17.27;9.20;;;;;;;;;;5119974;28;20483;-55
2023/06/30 06:27:25;;;;;;;16.53;10.00;;;23.10;99.90;;;;;;5125125;28;20444;-56
2023/06/30 06:29:52;;;;;;;14.87;9.03;;;;;;;;;;5125590;28;20516;-55
2023/06/30 06:32:19;;;;;;;12.77;9.20;;;22.80;99.90;;;;;;5133286;28;20952;-52
2023/06/30 06:34:46;;;;;;;16.63;9.43;;;23.10;99.90;;;;;;5126418;28;20433;-55
2023/06/30 06:37:14;;;;;;;15.60;9.60;;;;;;;;;;5118171;28;20451;-56
2023/06/30 06:39:40;;;;;;;16.63;9.30;;;23.30;99.90;;;;;;5120423;28;20454;-53
2023/06/30 06:42:08;;;;;;;15.00;8.53;;;23.20;99.90;;;;;;5126330;28;20444;-54
2023/06/30 06:44:36;;;;;;;21.37;9.10;;;23.20;99.90;;;;;;5133130;28;20484;-50
2023/06/30 06:47:40;;;;;;;16.33;9.57;;;23.40;99.90;;;;;;5136391;28;20436;-51
2023/06/30 06:50:08;;;;;;;15.00;9.90;;;;;;;;;;5136001;28;20460;-55
2023/06/30 06:52:35;;;;;;;16.13;9.97;;;;;;;;;;5130651;28;20548;-53
2023/06/30 06:55:02;;;;;;;14.00;8.90;;;23.50;99.90;;;;;;5129219;28;20467;-56
2023/06/30 06:57:29;;;;;;;11.20;8.10;;;;;;;;;;5128129;28;21015;-59
2023/06/30 07:00:00;;;;;;;13.03;7.57;;;23.20;99.90;;;;;;5122622;28;20505;-54
2023/06/30 07:02:27;;;;;;;12.90;7.93;;;;;;;;;;5122380;28;20424;-54
2023/06/30 07:04:55;;;;;;;13.00;8.70;;;;;;;;;;5121867;28;21006;-56
2023/06/30 07:07:22;;;;;;;14.07;8.73;;;;;;;;;;5119074;28;20448;-53
2023/06/30 07:09:49;;;;;;;14.53;8.50;;;23.00;99.90;;;;;;5120177;28;20524;-53
2023/06/30 07:12:15;;;;;;;13.43;9.63;;;23.20;99.90;;;;;;5122868;28;20472;-56
2023/06/30 07:14:43;;;;;;;14.17;8.20;;;;;;;;;;5127543;28;20464;-56
2023/06/30 07:17:11;;;;;;;14.47;9.47;;;23.00;99.90;;;;;;5131357;28;20509;-56
2023/06/30 07:19:38;;;;;;;22.23;9.73;;;22.80;99.90;;;;;;5130682;28;20487;-56
2023/06/30 07:22:05;;;;;;;13.17;8.53;;;;;;;;;;5131296;28;20516;-50
2023/06/30 07:24:32;;;;;;;16.70;9.63;;;22.40;99.90;;;;;;5132826;28;20527;-54
2023/06/30 07:26:59;;;;;;;16.07;9.33;;;22.80;99.90;;;;;;5123546;28;20476;-53
2023/06/30 07:29:29;;;;;;;18.93;10.40;;;23.00;99.90;;;;;;5118674;28;20473;-52
2023/06/30 07:31:56;;;;;;;14.73;8.70;;;22.60;99.90;;;;;;5129055;28;20487;-51
2023/06/30 07:34:24;;;;;;;18.80;11.17;;;22.40;99.90;;;;;;5130705;28;20520;-55
2023/06/30 07:36:51;;;;;;;16.90;9.30;;;22.50;99.90;;;;;;5131804;28;20448;-52
2023/06/30 07:39:18;;;;;;;16.03;10.77;;;;;;;;;;5131814;28;20452;-51
2023/06/30 07:41:45;;;;;;;21.23;10.30;;;22.60;99.90;;;;;;5134991;28;20444;-53
2023/06/30 07:44:12;;;;;;;16.87;9.50;;;;;;;;;;5130086;28;20500;-56
2023/06/30 07:46:42;;;;;;;11.97;7.90;;;22.50;99.90;;;;;;5131539;28;20467;-53
2023/06/30 07:49:09;;;;;;;15.17;8.97;;;;;;;;;;5130706;28;20437;-50
2023/06/30 07:51:38;;;;;;;18.20;9.30;;;22.70;99.90;;;;;;5131611;28;20469;-56
2023/06/30 07:54:07;;;;;;;14.90;9.40;;;;;;;;;;5127297;28;20476;-52
2023/06/30 07:56:34;;;;;;;14.43;10.20;;;23.30;99.90;;;;;;5115913;28;20461;-55
2023/06/30 07:59:01;;;;;;;14.63;8.67;;;;;;;;;;5117197;28;20456;-55
2023/06/30 08:01:28;;;;;;;13.20;9.17;;;22.70;99.90;;;;;;5124289;28;20441;-55
2023/06/30 08:03:55;;;;;;;14.60;8.80;;;22.90;99.90;;;;;;5130712;28;20448;-54
2023/06/30 08:06:22;;;;;;;18.50;11.00;;;22.70;99.90;;;;;;5122597;28;20916;-56
2023/06/30 08:08:51;;;;;;;15.87;9.50;;;22.80;99.90;;;;;;5126181;28;20587;-57
2023/06/30 08:11:18;;;;;;;14.27;8.60;;;22.70;99.90;;;;;;5116483;28;20460;-57
2023/06/30 08:13:45;;;;;;;13.67;8.90;;;22.60;99.90;;;;;;5117024;28;20505;-55
2023/06/30 08:16:12;;;;;;;19.33;10.47;;;;;;;;;;5117744;28;20425;-57
2023/06/30 08:18:40;;;;;;;12.10;8.37;;;;;;;;;;5130722;28;20456;-57
2023/06/30 08:21:07;;;;;;;15.07;9.90;;;;;;;;;;5116944;28;20436;-56
2023/06/30 08:23:34;;;;;;;12.60;8.13;;;23.10;99.90;;;;;;5124944;28;20743;-54
2023/06/30 08:26:02;;;;;;;15.43;9.07;;;22.80;99.90;;;;;;5125360;28;20495;-58
2023/06/30 08:28:29;;;;;;;15.40;10.43;;;22.80;99.90;;;;;;5128911;28;20448;-57
2023/06/30 08:30:56;;;;;;;16.50;9.17;;;;;;;;;;5129864;28;20476;-52
2023/06/30 08:33:30;;;;;;;11.80;8.50;;;23.20;99.90;;;;;;5117572;28;20461;-57
2023/06/30 08:35:57;;;;;;;14.27;9.17;;;23.70;99.90;;;;;;5127328;28;20425;-54
2023/06/30 08:38:24;;;;;;;11.90;9.30;;;23.70;99.90;;;;;;5129747;28;20540;-57
2023/06/30 08:40:51;;;;;;;15.53;10.17;;;23.60;99.90;;;;;;5118516;28;20496;-56
2023/06/30 08:43:22;;;;;;;15.73;9.00;;;23.40;99.90;;;;;;5121201;28;20504;-57
2023/06/30 08:45:53;;;;;;;17.70;9.27;;;23.40;99.90;;;;;;5114974;28;20498;-55
2023/06/30 08:48:20;;;;;;;14.83;9.80;;;23.80;99.90;;;;;;5120204;28;20645;-55
2023/06/30 08:50:48;;;;;;;14.23;9.30;;;23.70;99.90;;;;;;5127452;28;20464;-54
2023/06/30 08:53:18;;;;;;;13.57;9.80;;;24.40;99.90;;;;;;5130094;28;20472;-56
2023/06/30 08:55:46;;;;;;;13.57;9.43;;;24.40;99.90;;;;;;5130009;28;20459;-55
2023/06/30 08:58:12;;;;;;;11.23;8.40;;;24.70;99.90;;;;;;5128712;28;20500;-55
2023/06/30 09:00:41;;;;;;;14.10;8.80;;;;;;;;;;5128496;28;20464;-58
2023/06/30 09:03:08;;;;;;;20.43;8.77;;;25.10;99.90;;;;;;5130251;28;20507;-57
2023/06/30 09:05:37;;;;;;;13.23;10.07;;;24.80;99.90;;;;;;5125334;28;20536;-57
2023/06/30 09:08:11;;;;;;;14.27;9.17;;;24.70;99.90;;;;;;5126965;28;20440;-58
2023/06/30 09:10:41;;;;;;;15.37;9.03;;;25.20;99.90;;;;;;5132851;28;20488;-57
2023/06/30 09:13:10;;;;;;;26.43;8.83;;;24.70;99.90;;;;;;5134555;28;20726;-57
2023/06/30 09:15:37;;;;;;;14.40;10.03;;;24.40;99.90;;;;;;5135071;28;20471;-57
2023/06/30 09:18:06;;;;;;;16.30;9.43;;;24.70;99.90;;;;;;5123928;28;20429;-57
2023/06/30 09:20:33;;;;;;;12.97;9.60;;;;;;;;;;5118527;28;20492;-58
2023/06/30 09:23:03;;;;;;;18.87;10.40;;;24.60;99.90;;;;;;5122413;28;20440;-57
2023/06/30 09:25:43;;;;;;;20.40;9.50;;;24.40;99.90;;;;;;5124067;28;20764;-59
2023/06/30 09:28:12;;;;;;;16.17;10.10;;;;;;;;;;5123695;28;20806;-56
2023/06/30 09:30:41;;;;;;;16.30;10.30;;;24.20;99.90;;;;;;5127665;28;20432;-55
2023/06/30 09:33:09;;;;;;;16.40;10.70;;;23.80;99.90;;;;;;5135897;28;20432;-58
2023/06/30 09:35:38;;;;;;;17.20;11.40;;;24.00;99.90;;;;;;5125574;28;20460;-59
2023/06/30 09:38:09;;;;;;;19.03;11.13;;;23.90;99.90;;;;;;5123694;28;20780;-59
2023/06/30 09:40:36;;;;;;;18.10;12.80;;;;;;;;;;5123385;28;20559;-59
2023/06/30 09:43:05;;;;;;;20.90;11.97;;;23.70;99.90;;;;;;5123072;28;20518;-60
2023/06/30 09:45:33;;;;;;;18.17;12.47;;;23.40;99.90;;;;;;5124378;28;20540;-60
2023/06/30 09:48:00;;;;;;;21.47;13.37;;;23.60;99.90;;;;;;5123496;28;20444;-59
2023/06/30 09:50:31;;;;;;;23.67;13.47;;;23.40;99.90;;;;;;5124300;28;20944;-57
2023/06/30 09:52:59;;;;;;;20.13;12.17;;;23.20;99.90;;;;;;5123484;28;20461;-62
2023/06/30 09:55:26;;;;;;;23.53;13.93;;;;;;;;;;5123545;28;20523;-59
2023/06/30 09:57:56;;;;;;;20.13;14.00;;;22.60;99.90;;;;;;5127210;28;20441;-57
2023/06/30 10:00:25;;;;;;;23.60;14.23;;;22.70;99.90;;;;;;5127530;28;20844;-60
2023/06/30 10:03:03;;;;;;;27.70;16.10;;;22.50;99.90;;;;;;5123845;28;20787;-57
2023/06/30 10:05:31;;;;;;;25.30;14.00;;;22.70;99.90;;;;;;5130322;28;20480;-57
2023/06/30 10:08:01;;;;;;;17.37;12.83;;;23.10;99.90;;;;;;5131354;28;20749;-59
2023/06/30 10:10:29;;;;;;;29.47;14.70;;;23.30;99.90;;;;;;5123345;28;20521;-59
2023/06/30 10:12:58;;;;;;;17.97;13.13;;;23.30;99.90;;;;;;5123191;28;20913;-57
2023/06/30 10:15:25;;;;;;;27.47;14.70;;;;;;;;;;5123861;28;20560;-58
2023/06/30 10:17:53;;;;;;;23.43;14.50;;;23.20;99.90;;;;;;5126136;28;20468;-58
2023/06/30 10:20:21;;;;;;;26.20;14.13;;;;;;;;;;5123439;28;20460;-60
2023/06/30 10:22:49;;;;;;;24.70;15.70;;;23.00;99.90;;;;;;5126364;28;20454;-58
2023/06/30 10:25:20;;;;;;;22.63;16.10;;;23.10;99.90;;;;;;5126939;28;20608;-58
2023/06/30 10:27:48;;;;;;;22.40;12.70;;;22.60;99.90;;;;;;5135079;28;20425;-58
2023/06/30 10:30:16;;;;;;;30.37;14.77;;;22.90;99.90;;;;;;5117737;28;21038;-58
2023/06/30 10:32:44;;;;;;;28.23;15.57;;;;;;;;;;5125116;28;20513;-59
2023/06/30 10:35:14;;;;;;;20.60;13.87;;;22.70;99.90;;;;;;5132847;28;20443;-58
2023/06/30 10:37:42;;;;;;;24.60;13.70;;;;;;;;;;5129593;28;20439;-57
2023/06/30 10:40:24;;;;;;;25.73;14.73;;;22.60;99.90;;;;;;5131443;28;20905;-59
2023/06/30 10:42:52;;;;;;;22.70;16.00;;;22.50;99.90;;;;;;5134021;28;20469;-57
2023/06/30 10:45:19;;;;;;;24.20;14.67;;;22.60;99.90;;;;;;5133434;28;20491;-58
2023/06/30 10:47:50;;;;;;;25.20;15.40;;;22.50;99.90;;;;;;5127932;28;20483;-58
2023/06/30 10:50:18;;;;;;;25.50;14.30;;;22.50;99.90;;;;;;5120512;28;20482;-58
2023/06/30 10:52:53;;;;;;;28.73;17.53;;;22.50;99.90;;;;;;5116702;28;20521;-60
2023/06/30 10:55:27;;;;;;;31.60;15.90;;;22.40;99.90;;;;;;5118092;28;20459;-58
2023/06/30 10:57:55;;;;;;;25.40;15.40;;;22.10;99.90;;;;;;5116892;28;20428;-58
2023/06/30 11:00:24;;;;;;;25.40;13.80;;;22.10;99.90;;;;;;5116509;28;20433;-55
2023/06/30 11:02:57;;;;;;;25.33;14.43;;;22.00;99.90;;;;;;5118246;28;20440;-58
2023/06/30 11:05:25;;;;;;;23.00;12.50;;;21.50;99.90;;;;;;5116070;28;20464;-58
2023/06/30 11:07:54;;;;;;;25.70;13.50;;;21.80;99.90;;;;;;5117481;28;20511;-56
2023/06/30 11:10:35;;;;;;;22.60;13.30;;;21.70;99.90;;;;;;5115952;28;20871;-60
2023/06/30 11:13:03;;;;;;;18.00;11.43;;;21.90;99.90;;;;;;5116349;28;20436;-58
2023/06/30 11:15:46;;;;;;;22.17;13.23;;;21.50;99.90;;;;;;5125736;28;20446;-58
2023/06/30 11:18:16;;;;;;;23.90;12.80;;;21.70;99.90;;;;;;5123582;28;20561;-59
2023/06/30 11:20:59;;;;;;;22.23;12.43;;;21.50;99.90;;;;;;5123733;28;20448;-59
2023/06/30 11:23:28;;;;;;;20.07;12.00;;;21.50;99.90;;;;;;5123287;28;20468;-60
2023/06/30 11:25:58;;;;;;;23.73;13.23;;;21.30;99.90;;;;;;5122305;28;20476;-57
2023/06/30 11:28:26;;;;;;;20.60;13.40;;;21.30;99.90;;;;;;5128049;28;20482;-57
2023/06/30 11:30:53;;;;;;;24.37;13.77;;;;;;;;;;5124499;28;20548;-58
2023/06/30 11:33:20;;;;;;;22.97;13.87;;;21.30;99.90;;;;;;5123433;28;20492;-56
2023/06/30 11:35:52;;;;;;;26.00;15.20;;;21.30;99.90;;;;;;5123497;28;20536;-58
2023/06/30 11:38:19;;;;;;;22.87;13.00;;;;;;;;;;5123752;28;20486;-58
2023/06/30 11:40:48;;;;;;;24.13;13.07;;;21.20;99.90;;;;;;5122590;28;20425;-57
2023/06/30 11:43:17;;;;;;;20.57;13.10;;;21.40;99.90;;;;;;5123672;28;20432;-58
2023/06/30 11:45:54;;;;;;;18.23;11.63;;;21.10;99.90;;;;;;5122939;28;20484;-56
2023/06/30 11:48:21;;;;;;;21.50;13.03;;;;;;;;;;5123606;28;20489;-58
2023/06/30 11:50:48;;;;;;;20.83;12.80;;;21.10;99.90;;;;;;5130767;28;20420;-59
2023/06/30 11:53:15;;;;;;;27.07;12.50;;;21.10;99.90;;;;;;5126137;28;20463;-53
2023/06/30 11:55:44;;;;;;;21.53;12.93;;;21.30;99.90;;;;;;5124492;28;20528;-56
2023/06/30 11:58:11;;;;;;;26.57;14.57;;;;;;;;;;5125387;28;20460;-55
2023/06/30 12:00:44;;;;;;;21.63;12.40;;;21.80;99.90;;;;;;5130369;28;20432;-57
2023/06/30 12:03:16;;;;;;;21.00;11.20;;;21.40;99.90;;;;;;5123234;28;20787;-55
2023/06/30 12:05:46;;;;;;;21.77;12.77;;;;;;;;;;5123759;28;20465;-59
2023/06/30 12:08:13;;;;;;;23.47;12.87;;;;;;;;;;5123183;28;20444;-59
2023/06/30 12:10:40;;;;;;;18.77;12.40;;;;;;;;;;5125987;28;20472;-59
2023/06/30 12:13:08;;;;;;;20.73;11.67;;;22.50;99.90;;;;;;5122456;28;20440;-56
2023/06/30 12:15:35;;;;;;;23.50;14.30;;;;;;;;;;5123055;28;20440;-56
2023/06/30 12:18:05;;;;;;;19.83;12.60;;;21.80;99.90;;;;;;5122986;28;20877;-56
2023/06/30 12:20:34;;;;;;;17.57;11.20;;;21.90;99.90;;;;;;5126217;28;20796;-57
2023/06/30 12:23:02;;;;;;;16.07;10.20;;;21.60;99.90;;;;;;5127651;28;20475;-57
2023/06/30 12:25:31;;;;;;;16.53;10.37;;;21.50;99.90;;;;;;5129647;28;20487;-58
2023/06/30 12:27:58;;;;;;;11.03;5.90;;;;;;;;;;5122274;28;20440;-55
2023/06/30 12:30:28;;;;;;;9.80;6.43;;;21.30;99.90;;;;;;5122512;28;20429;-57
2023/06/30 12:32:58;;;;;;;7.90;4.30;;;21.20;99.90;;;;;;5115191;28;20524;-57
2023/06/30 12:35:33;;;;;;;11.80;4.63;;;21.30;99.90;;;;;;5115971;28;20475;-56
2023/06/30 12:38:03;;;;;;;7.33;5.20;;;21.30;99.90;;;;;;5126485;28;20904;-59
2023/06/30 12:40:30;;;;;;;6.70;4.70;;;21.50;99.90;;;;;;5126735;28;20812;-58
2023/06/30 12:42:58;;;;;;;6.73;5.27;;;21.30;99.90;;;;;;5127113;28;20421;-58
2023/06/30 12:45:25;;;;;;;6.87;4.30;;;21.40;99.90;;;;;;5130331;28;20444;-56
2023/06/30 12:47:52;;;;;;;8.80;3.87;;;21.10;99.90;;;;;;5128002;28;20475;-58
2023/06/30 12:50:19;;;;;;;6.70;4.33;;;21.40;99.90;;;;;;5121023;28;20972;-57
2023/06/30 12:52:47;;;;;;;9.47;6.40;;;21.30;99.90;;;;;;5118524;28;20448;-58
2023/06/30 12:55:14;;;;;;;8.50;4.97;;;;;;;;;;5121331;28;20449;-58
2023/06/30 12:57:41;;;;;;;7.17;5.00;;;21.20;99.90;;;;;;5122333;28;20476;-59
2023/06/30 13:00:09;;;;;;;6.87;4.63;;;20.70;99.90;;;;;;5118789;28;20507;-57
2023/06/30 13:02:36;;;;;;;7.97;5.00;;;20.70;99.90;;;;;;5119118;28;20936;-58
2023/06/30 13:05:04;;;;;;;6.90;4.63;;;20.70;99.90;;;;;;5119857;28;20504;-57
2023/06/30 13:07:32;;;;;;;12.87;4.70;;;;;;;;;;5120240;28;20460;-57